Time;durP1;ratioP1;P1;durP2;ratioP2;P2;SDS_P1;SDS_P2;PMS_P1;PMS_P2;Temp;Humidity;BMP_temperature;BMP_pressure;BME280_temperature;BME280_humidity;BME280_pressure;Samples;Min_cycle;Max_cycle;Signal;HPM_P1;HPM_P2
2021/07/06 00:02:08;;;;;;;7.25;5.40;;;;;;;24.76;100.00;100371.69;4863657;29;20459;-75
2021/07/06 00:04:59;;;;;;;7.53;5.70;;;;;;;24.89;100.00;100372.41;4863916;29;20112;-76
2021/07/06 00:07:46;;;;;;;8.85;4.88;;;;;;;24.83;100.00;100369.38;4864244;29;20036;-75
2021/07/06 00:10:35;;;;;;;6.25;5.20;;;;;;;24.88;100.00;100368.03;4862417;29;20096;-76
2021/07/06 00:13:21;;;;;;;6.72;4.97;;;;;;;25.07;100.00;100376.25;4863534;29;20037;-75
2021/07/06 00:16:07;;;;;;;6.47;5.40;;;;;;;24.84;100.00;100379.09;4863010;29;20490;-75
2021/07/06 00:18:52;;;;;;;5.95;4.90;;;;;;;24.88;100.00;100376.06;4864141;29;20029;-76
2021/07/06 00:21:38;;;;;;;9.05;4.90;;;;;;;24.84;100.00;100376.44;4863916;29;20073;-75
2021/07/06 00:24:24;;;;;;;5.90;5.05;;;;;;;24.76;100.00;100377.06;4862562;29;20374;-75
2021/07/06 00:27:10;;;;;;;5.93;5.10;;;;;;;24.70;100.00;100382.91;4864276;29;20025;-75
2021/07/06 00:29:55;;;;;;;7.25;5.00;;;;;;;24.77;100.00;100377.91;4862575;29;20451;-75
2021/07/06 00:32:41;;;;;;;6.78;4.95;;;;;;;24.59;100.00;100374.00;4861824;29;20037;-75
2021/07/06 00:35:27;;;;;;;7.70;5.28;;;;;;;24.71;100.00;100383.75;4863473;29;20076;-76
2021/07/06 00:38:13;;;;;;;6.20;5.60;;;;;;;24.42;100.00;100382.50;4850077;29;20026;-76
2021/07/06 00:41:00;;;;;;;5.78;5.18;;;;;;;24.42;100.00;100380.69;4864214;29;20120;-76
2021/07/06 00:43:46;;;;;;;6.65;5.35;;;;;;;24.47;100.00;100375.00;4864077;29;20469;-75
2021/07/06 00:46:32;;;;;;;8.07;5.30;;;;;;;24.36;100.00;100383.88;4863108;29;20045;-76
2021/07/06 00:49:18;;;;;;;8.18;5.72;;;;;;;24.34;100.00;100383.13;4863209;29;20048;-75
2021/07/06 00:52:05;;;;;;;6.88;5.70;;;;;;;24.18;100.00;100384.47;4863599;29;20132;-75
2021/07/06 00:54:51;;;;;;;9.70;5.88;;;;;;;24.14;100.00;100383.03;4864250;29;20041;-75
2021/07/06 00:57:37;;;;;;;6.00;5.40;;;;;;;24.14;100.00;100393.72;4863734;29;20056;-76
2021/07/06 01:00:25;;;;;;;7.93;5.90;;;;;;;24.14;100.00;100391.88;4863947;29;20369;-75
2021/07/06 01:03:11;;;;;;;9.95;6.13;;;;;;;24.55;100.00;100396.66;4863967;29;20029;-75
2021/07/06 01:05:57;;;;;;;7.03;5.57;;;;;;;24.49;100.00;100389.09;4850372;29;20044;-75
2021/07/06 01:08:46;;;;;;;6.75;5.35;;;;;;;24.69;100.00;100383.03;4863695;29;20041;-75
2021/07/06 01:11:34;;;;;;;7.65;5.90;;;;;;;24.53;100.00;100386.06;4862537;29;20038;-75
2021/07/06 01:14:20;;;;;;;11.27;6.00;;;;;;;24.51;100.00;100392.53;4861658;29;20120;-77
2021/07/06 01:17:07;;;;;;;10.55;6.55;;;;;;;24.55;100.00;100399.34;4863238;29;20033;-76
2021/07/06 01:19:53;;;;;;;7.97;5.90;;;;;;;24.37;100.00;100387.38;4863133;29;20114;-76
2021/07/06 01:22:39;;;;;;;11.45;7.15;;;;;;;24.39;100.00;100393.50;4861216;29;20033;-76
2021/07/06 01:25:25;;;;;;;8.93;6.50;;;;;;;24.27;100.00;100397.97;4864573;29;20069;-76
2021/07/06 01:28:10;;;;;;;23.90;8.48;;;;;;;24.49;100.00;100400.69;4862542;29;20108;-76
2021/07/06 01:30:56;;;;;;;9.50;6.80;;;;;;;24.14;100.00;100397.25;4861184;29;20043;-75
2021/07/06 01:33:43;;;;;;;8.75;6.72;;;;;;;24.38;100.00;100402.47;4863008;29;20675;-75
2021/07/06 01:36:29;;;;;;;9.63;6.65;;;;;;;23.91;100.00;100399.97;4867499;29;20037;-75
2021/07/06 01:39:19;;;;;;;8.55;6.85;;;;;;;24.03;100.00;100399.06;4866814;29;20025;-75
2021/07/06 01:42:04;;;;;;;9.32;7.07;;;;;;;23.93;100.00;100406.06;4866251;29;20056;-76
2021/07/06 01:45:12;;;;;;;8.45;7.00;;;;;;;24.12;100.00;100404.56;4866057;29;20455;-75
2021/07/06 01:48:02;;;;;;;8.48;6.50;;;;;;;24.20;100.00;100398.59;4851879;29;20029;-75
2021/07/06 01:50:48;;;;;;;8.82;6.75;;;;;;;24.05;100.00;100405.13;4852367;29;20048;-76
2021/07/06 01:53:34;;;;;;;8.38;6.10;;;;;;;24.07;100.00;100412.06;4850737;29;20044;-76
2021/07/06 01:56:20;;;;;;;8.20;6.90;;;;;;;24.01;100.00;100415.22;4865818;29;20046;-76
2021/07/06 01:59:06;;;;;;;7.57;6.72;;;;;;;23.97;100.00;100415.56;4865201;29;20352;-76
2021/07/06 04:48:29;;;;;;;13.52;9.85;;;;;;;24.06;100.00;100506.72;5905761;23;19926;-75
2021/07/06 04:51:15;;;;;;;12.98;9.48;;;;;;;23.69;100.00;100501.56;4843898;29;20073;-75
2021/07/06 04:54:01;;;;;;;14.23;9.55;;;;;;;24.27;100.00;100504.25;4831448;29;20034;-76
2021/07/06 04:56:46;;;;;;;15.10;9.52;;;;;;;24.56;100.00;100503.69;4844941;29;20475;-75
2021/07/06 04:59:32;;;;;;;12.48;9.82;;;;;;;24.33;100.00;100504.63;4844256;29;20030;-75
2021/07/06 05:02:18;;;;;;;13.30;9.55;;;;;;;24.46;100.00;100505.38;4844336;29;20067;-75
2021/07/06 05:05:05;;;;;;;13.98;9.82;;;;;;;24.12;100.00;100513.44;4843683;29;20033;-76
2021/07/06 05:07:52;;;;;;;14.52;9.82;;;;;;;24.28;100.00;100517.53;4844927;29;20030;-75
2021/07/06 05:10:38;;;;;;;15.98;9.43;;;;;;;24.46;100.00;100513.41;4843752;29;20041;-76
2021/07/06 05:13:24;;;;;;;17.48;9.90;;;;;;;24.57;100.00;100520.59;4844726;29;20065;-76
2021/07/06 05:16:11;;;;;;;15.05;10.57;;;;;;;24.34;100.00;100519.72;4845319;29;20034;-76
2021/07/06 05:18:56;;;;;;;16.17;10.07;;;;;;;24.47;100.00;100523.13;4844132;29;20037;-76
2021/07/06 05:21:42;;;;;;;14.13;10.02;;;;;;;24.46;100.00;100525.94;4843728;29;20354;-76
2021/07/06 05:24:28;;;;;;;15.73;9.73;;;;;;;24.88;100.00;100536.03;4842982;29;20528;-75
2021/07/06 05:27:15;;;;;;;17.90;10.18;;;;;;;24.52;100.00;100541.56;4843788;29;20076;-76
2021/07/06 06:42:02;;;;;;;16.40;11.43;;;;;;;25.51;100.00;100595.28;5303208;23;20054;-76
2021/07/06 06:44:48;;;;;;;18.15;12.10;;;;;;;25.35;100.00;100592.13;4845484;29;20046;-76
2021/07/06 06:47:35;;;;;;;19.92;12.90;;;;;;;24.41;100.00;100587.03;4845867;29;20415;-75
2021/07/06 06:50:22;;;;;;;20.45;13.82;;;;;;;24.66;100.00;100592.25;4845411;29;20467;-75
2021/07/06 06:53:08;;;;;;;20.55;13.05;;;;;;;25.12;100.00;100585.84;4832380;29;20383;-76
2021/07/06 06:55:53;;;;;;;17.65;13.10;;;;;;;25.52;100.00;100584.38;4844869;29;20041;-76
2021/07/06 06:58:39;;;;;;;17.75;12.90;;;;;;;25.16;100.00;100583.78;4831740;29;20482;-75
2021/07/06 07:01:25;;;;;;;22.90;12.98;;;;;;;25.39;100.00;100588.22;4845175;29;20026;-76
2021/07/06 07:04:11;;;;;;;19.77;13.23;;;;;;;25.16;100.00;100583.78;4832858;29;20125;-76
2021/07/06 07:06:56;;;;;;;22.15;13.43;;;;;;;25.02;100.00;100584.88;4845399;29;20045;-77
2021/07/06 07:09:42;;;;;;;20.65;11.70;;;;;;;25.64;100.00;100583.38;4845391;29;20029;-76
2021/07/06 07:12:31;;;;;;;16.80;11.75;;;;;;;25.66;100.00;100586.81;4844881;29;20062;-76
2021/07/06 07:15:17;;;;;;;27.98;11.98;;;;;;;25.92;100.00;100585.50;4845330;29;20102;-76
2021/07/06 07:18:03;;;;;;;16.52;11.68;;;;;;;25.57;100.00;100594.75;4844670;29;20040;-75
2021/07/06 07:20:48;;;;;;;14.85;11.13;;;;;;;25.51;100.00;100603.31;4844835;29;20033;-76
2021/07/06 07:23:34;;;;;;;41.25;12.73;;;;;;;25.81;100.00;100616.91;4844172;29;20034;-76
2021/07/06 07:26:20;;;;;;;21.20;12.68;;;;;;;25.83;100.00;100631.06;4844600;29;20491;-76
2021/07/06 07:29:06;;;;;;;16.05;12.18;;;;;;;25.76;100.00;100643.28;4844122;29;20040;-75
2021/07/06 07:31:53;;;;;;;19.95;12.35;;;;;;;25.67;100.00;100652.06;4843656;29;20057;-75
2021/07/06 07:34:38;;;;;;;16.60;12.88;;;;;;;25.39;100.00;100649.91;4844854;29;20045;-76
2021/07/06 07:37:24;;;;;;;20.98;13.55;;;;;;;25.18;100.00;100641.69;4844766;29;20074;-75
2021/07/06 07:40:12;;;;;;;21.05;16.17;;;;;;;25.13;100.00;100634.97;4844490;29;20125;-76
2021/07/06 09:11:26;;;;;;;17.05;9.10;;;;;;;31.46;100.00;100612.53;5381573;23;20061;-76
2021/07/06 09:14:13;;;;;;;13.20;9.15;;;;;;;31.22;100.00;100610.53;4848545;29;20064;-76
2021/07/06 09:17:22;;;;;;;13.88;9.65;;;;;;;31.78;100.00;100609.97;4862047;29;20347;-75
2021/07/06 09:20:11;;;;;;;13.00;8.68;;;;;;;32.44;100.00;100613.53;4861127;29;20021;-75
2021/07/06 09:23:17;;;;;;;14.10;8.70;;;;;;;32.17;100.00;100613.81;4848850;29;20066;-74
2021/07/06 09:26:19;;;;;;;12.52;7.82;;;;;;;32.28;100.00;100609.91;4861987;29;20459;-76
2021/07/06 09:29:04;;;;;;;10.20;7.65;;;;;;;32.38;100.00;100610.66;4861438;29;20033;-75
2021/07/06 09:31:51;;;;;;;8.00;7.20;;;;;;;32.23;100.00;100612.28;4861953;29;20437;-76
2021/07/06 09:34:37;;;;;;;12.52;7.43;;;;;;;32.15;100.00;100605.00;4848394;29;20064;-76
2021/07/06 14:18:57;;;;;;;10.15;6.10;;;;;;;33.83;72.75;100558.56;5117308;23;19935;-78
2021/07/06 14:21:43;;;;;;;16.85;6.68;;;;;;;33.47;75.20;100561.97;4865021;29;20489;-78
2021/07/06 14:24:33;;;;;;;8.05;6.30;;;;;;;33.89;69.73;100555.13;4852920;29;20105;-78
2021/07/06 14:27:20;;;;;;;9.35;6.13;;;;;;;33.06;68.91;100546.84;4851909;29;20033;-78
2021/07/06 14:30:07;;;;;;;6.72;5.57;;;;;;;33.64;66.11;100547.28;4852652;29;20021;-77
2021/07/06 14:32:55;;;;;;;8.18;5.95;;;;;;;33.98;66.63;100547.75;4864260;29;20037;-78
2021/07/06 14:35:41;;;;;;;9.95;6.10;;;;;;;34.16;65.62;100549.13;4852517;29;20451;-78
2021/07/06 14:38:26;;;;;;;7.97;5.90;;;;;;;34.26;63.86;100547.03;4865030;29;20037;-78
2021/07/06 14:41:14;;;;;;;11.98;6.13;;;;;;;34.21;64.52;100552.19;4864786;29;20086;-78
2021/07/06 14:44:00;;;;;;;6.78;5.68;;;;;;;33.82;64.61;100548.72;4852271;29;20041;-78
2021/07/06 14:46:50;;;;;;;10.02;6.15;;;;;;;34.02;65.24;100549.09;4864816;29;20444;-78
2021/07/06 14:49:47;;;;;;;9.63;6.30;;;;;;;33.58;67.47;100547.97;4864236;29;20072;-77
2021/07/06 14:52:33;;;;;;;11.95;5.72;;;;;;;33.38;66.83;100544.84;4852576;29;20029;-79
2021/07/06 14:55:19;;;;;;;10.73;6.00;;;;;;;33.58;65.22;100548.81;4865049;29;20029;-77
2021/07/06 14:58:22;;;;;;;6.53;5.50;;;;;;;33.58;67.12;100553.41;4864989;29;20518;-77
2021/07/06 15:01:08;;;;;;;9.40;6.30;;;;;;;34.57;64.63;100547.81;4865630;29;20044;-78
2021/07/06 15:03:54;;;;;;;8.95;6.50;;;;;;;34.20;63.93;100549.63;4865284;29;20049;-79
2021/07/06 15:06:39;;;;;;;7.28;5.70;;;;;;;33.48;65.59;100555.50;4867374;29;20544;-79
2021/07/06 15:09:25;;;;;;;6.38;5.35;;;;;;;33.50;65.85;100545.28;4852578;29;20053;-78
2021/07/06 15:12:12;;;;;;;8.73;5.95;;;;;;;33.73;66.52;100547.03;4864569;29;20110;-78
2021/07/06 15:14:59;;;;;;;6.57;5.65;;;;;;;34.06;62.50;100553.13;4865564;29;20033;-78
2021/07/06 18:32:26;;;;;;;10.93;7.10;;;;;;;30.33;100.00;100737.94;5362764;23;20050;-76
2021/07/06 18:35:12;;;;;;;8.73;7.05;;;;;;;30.16;100.00;100746.00;4863819;29;20072;-76
2021/07/06 18:37:59;;;;;;;12.23;7.10;;;;;;;30.17;100.00;100748.56;4865165;29;20057;-77
2021/07/06 18:40:50;;;;;;;8.32;6.72;;;;;;;30.38;100.00;100757.25;4864530;29;20069;-76
2021/07/06 18:43:36;;;;;;;12.85;6.78;;;;;;;30.39;100.00;100761.69;4864227;29;20047;-75
2021/07/06 18:46:22;;;;;;;8.07;7.00;;;;;;;30.52;100.00;100766.69;4864878;29;20475;-76
2021/07/06 18:49:07;;;;;;;9.73;7.18;;;;;;;30.25;100.00;100756.75;4865960;29;20150;-77
2021/07/06 18:51:56;;;;;;;9.45;7.40;;;;;;;30.44;100.00;100763.91;4864625;29;20033;-78
2021/07/06 18:54:42;;;;;;;12.02;8.05;;;;;;;30.08;100.00;100760.25;4863434;29;20040;-77
2021/07/06 18:57:27;;;;;;;10.23;7.35;;;;;;;30.03;100.00;100767.97;4864549;29;20375;-77
2021/07/06 19:00:15;;;;;;;10.25;7.28;;;;;;;30.07;100.00;100766.66;4864265;29;20030;-77
2021/07/06 19:03:01;;;;;;;13.15;7.70;;;;;;;30.30;100.00;100767.13;4864827;29;20029;-77
2021/07/06 19:05:54;;;;;;;12.40;7.78;;;;;;;30.16;100.00;100770.31;4864098;29;20033;-77
2021/07/06 19:08:40;;;;;;;10.82;7.85;;;;;;;29.99;100.00;100766.56;4864378;29;20385;-76
2021/07/06 19:11:26;;;;;;;9.98;7.72;;;;;;;29.98;100.00;100772.94;4863639;29;20085;-77
2021/07/06 19:52:47;;;;;;;12.25;7.57;;;;;;;29.46;100.00;100776.22;4861670;29;20046;-76
2021/07/06 19:55:33;;;;;;;10.13;7.93;;;;;;;29.75;100.00;100793.25;4849497;29;20041;-76
2021/07/06 19:58:18;;;;;;;9.50;7.55;;;;;;;29.50;100.00;100788.41;4863400;29;20030;-76
2021/07/06 20:01:06;;;;;;;11.32;7.57;;;;;;;29.31;100.00;100793.88;4862953;29;20045;-77
2021/07/06 20:03:52;;;;;;;12.55;8.32;;;;;;;29.14;100.00;100805.41;4862651;29;20138;-76
2021/07/06 20:06:38;;;;;;;14.05;8.05;;;;;;;29.45;100.00;100806.91;4862106;29;20033;-76
2021/07/06 20:09:24;;;;;;;13.07;7.63;;;;;;;29.20;100.00;100802.13;4850237;29;20128;-76
2021/07/06 20:12:10;;;;;;;8.65;7.72;;;;;;;29.22;100.00;100799.28;4849842;29;20029;-76
2021/07/06 20:14:55;;;;;;;12.80;7.53;;;;;;;29.16;100.00;100797.13;4862821;29;20105;-76
2021/07/06 20:17:41;;;;;;;10.77;7.05;;;;;;;29.05;100.00;100798.13;4862357;29;20041;-76
2021/07/06 20:20:27;;;;;;;14.60;7.15;;;;;;;29.08;100.00;100800.56;4861824;29;20446;-76
2021/07/06 20:23:13;;;;;;;9.35;6.97;;;;;;;28.71;100.00;100795.94;4862963;29;20463;-76
2021/07/06 20:25:58;;;;;;;10.82;7.43;;;;;;;28.65;100.00;100796.53;4862922;29;20029;-76
2021/07/06 20:28:44;;;;;;;12.20;7.55;;;;;;;28.81;100.00;100799.53;4848923;29;20029;-76
2021/07/06 20:31:30;;;;;;;10.13;7.45;;;;;;;29.07;100.00;100798.00;4850382;29;20120;-76
2021/07/06 20:34:16;;;;;;;12.52;7.90;;;;;;;28.55;100.00;100801.91;4862006;29;20385;-75
2021/07/06 20:37:02;;;;;;;14.60;7.70;;;;;;;28.67;100.00;100798.09;4862725;29;20037;-76
2021/07/06 20:39:48;;;;;;;8.57;7.50;;;;;;;28.54;100.00;100807.44;4861142;29;20029;-77
2021/07/06 20:42:34;;;;;;;14.15;7.80;;;;;;;28.68;100.00;100809.75;4861949;29;20128;-75
2021/07/06 20:45:21;;;;;;;12.80;7.85;;;;;;;28.82;100.00;100803.91;4850970;29;20033;-76
2021/07/06 20:48:07;;;;;;;12.52;7.28;;;;;;;28.66;100.00;100809.00;4849443;29;20033;-76
2021/07/06 20:50:54;;;;;;;8.27;6.95;;;;;;;28.66;100.00;100807.19;4862785;29;20053;-76
2021/07/06 20:53:40;;;;;;;9.02;7.20;;;;;;;28.38;100.00;100810.63;4862930;29;20033;-75
2021/07/06 20:56:26;;;;;;;9.15;7.25;;;;;;;28.48;100.00;100813.38;4850561;29;20025;-75
2021/07/06 20:59:11;;;;;;;11.18;7.95;;;;;;;28.47;100.00;100807.13;4849163;29;20037;-75
2021/07/06 21:01:57;;;;;;;9.75;6.93;;;;;;;28.37;100.00;100811.59;4849366;29;20044;-75
2021/07/06 21:04:43;;;;;;;9.93;6.97;;;;;;;27.99;100.00;100813.28;4861937;29;20082;-75
2021/07/06 21:07:29;;;;;;;10.95;7.53;;;;;;;28.26;100.00;100811.72;4862136;29;20033;-76
2021/07/06 21:10:17;;;;;;;10.57;6.90;;;;;;;28.33;100.00;100809.34;4862327;29;20447;-76
2021/07/06 21:13:03;;;;;;;7.78;6.97;;;;;;;27.94;100.00;100810.16;4862968;29;20391;-76
2021/07/06 21:15:49;;;;;;;8.75;7.15;;;;;;;28.09;100.00;100812.38;4861977;29;20051;-76
2021/07/06 21:18:34;;;;;;;10.32;6.93;;;;;;;28.18;100.00;100806.16;4861658;29;20029;-76
2021/07/06 21:21:20;;;;;;;14.70;6.63;;;;;;;27.89;100.00;100818.66;4861658;29;20037;-76
2021/07/06 21:24:06;;;;;;;9.93;7.10;;;;;;;27.60;100.00;100819.44;4861306;29;20447;-76
2021/07/06 21:26:52;;;;;;;8.38;6.68;;;;;;;27.69;100.00;100815.97;4862216;29;20514;-76
2021/07/06 21:29:38;;;;;;;12.02;6.88;;;;;;;27.82;100.00;100820.19;4862022;29;20104;-76
2021/07/06 21:32:25;;;;;;;8.57;6.65;;;;;;;27.80;100.00;100824.78;4862483;29;20397;-76
2021/07/06 21:35:11;;;;;;;6.72;6.10;;;;;;;27.74;100.00;100819.09;4847610;29;20076;-76
2021/07/06 21:37:57;;;;;;;9.82;6.53;;;;;;;27.56;100.00;100820.69;4862547;29;20044;-76
2021/07/06 21:40:43;;;;;;;11.77;7.07;;;;;;;27.53;100.00;100819.97;4861426;29;20034;-76
2021/07/06 21:43:29;;;;;;;8.13;6.75;;;;;;;27.70;100.00;100814.97;4861506;29;20056;-76
2021/07/06 21:46:15;;;;;;;7.20;6.50;;;;;;;27.54;100.00;100818.13;4862081;29;20038;-76
2021/07/06 21:49:01;;;;;;;9.48;6.72;;;;;;;27.66;100.00;100819.78;4861420;29;20033;-75
